sensor_id;sensor_type;location;lat;lon;timestamp;temperature;humidity
9919;DHT22;4998;51.024;13.828;2023-08-08T00:00:33;17.90;93.10
9919;DHT22;4998;51.024;13.828;2023-08-08T00:03:00;17.90;93.00
9919;DHT22;4998;51.024;13.828;2023-08-08T00:05:27;17.90;93.10
9919;DHT22;4998;51.024;13.828;2023-08-08T00:07:54;17.90;93.00
9919;DHT22;4998;51.024;13.828;2023-08-08T00:10:21;17.90;92.80
9919;DHT22;4998;51.024;13.828;2023-08-08T00:12:50;17.80;92.80
9919;DHT22;4998;51.024;13.828;2023-08-08T00:15:16;17.80;92.70
9919;DHT22;4998;51.024;13.828;2023-08-08T00:17:43;17.80;92.60
9919;DHT22;4998;51.024;13.828;2023-08-08T00:20:11;17.80;92.60
9919;DHT22;4998;51.024;13.828;2023-08-08T00:22:38;17.70;92.40
9919;DHT22;4998;51.024;13.828;2023-08-08T00:25:05;17.70;92.40
9919;DHT22;4998;51.024;13.828;2023-08-08T00:27:32;17.70;92.40
9919;DHT22;4998;51.024;13.828;2023-08-08T00:30:00;17.70;92.50
9919;DHT22;4998;51.024;13.828;2023-08-08T00:32:27;17.70;92.30
9919;DHT22;4998;51.024;13.828;2023-08-08T00:34:54;17.60;92.30
9919;DHT22;4998;51.024;13.828;2023-08-08T00:37:21;17.60;92.20
9919;DHT22;4998;51.024;13.828;2023-08-08T00:39:48;17.60;92.20
9919;DHT22;4998;51.024;13.828;2023-08-08T00:42:15;17.60;92.10
9919;DHT22;4998;51.024;13.828;2023-08-08T00:44:42;17.60;92.10
9919;DHT22;4998;51.024;13.828;2023-08-08T00:47:11;17.60;92.10
9919;DHT22;4998;51.024;13.828;2023-08-08T00:49:38;17.60;92.10
9919;DHT22;4998;51.024;13.828;2023-08-08T00:52:06;17.60;92.20
9919;DHT22;4998;51.024;13.828;2023-08-08T00:54:33;17.60;92.20
9919;DHT22;4998;51.024;13.828;2023-08-08T00:57:00;17.60;92.20
9919;DHT22;4998;51.024;13.828;2023-08-08T00:59:27;17.60;92.20
9919;DHT22;4998;51.024;13.828;2023-08-08T01:01:54;17.60;92.10
9919;DHT22;4998;51.024;13.828;2023-08-08T01:04:26;17.60;92.00
9919;DHT22;4998;51.024;13.828;2023-08-08T01:07:00;17.60;92.00
9919;DHT22;4998;51.024;13.828;2023-08-08T01:09:32;17.60;92.00
9919;DHT22;4998;51.024;13.828;2023-08-08T01:12:01;17.60;91.90
9919;DHT22;4998;51.024;13.828;2023-08-08T01:14:30;17.60;92.00
9919;DHT22;4998;51.024;13.828;2023-08-08T01:16:59;17.60;91.90
9919;DHT22;4998;51.024;13.828;2023-08-08T01:19:30;17.60;91.80
9919;DHT22;4998;51.024;13.828;2023-08-08T01:22:02;17.60;91.70
9919;DHT22;4998;51.024;13.828;2023-08-08T01:24:31;17.60;91.80
9919;DHT22;4998;51.024;13.828;2023-08-08T01:26:59;17.60;91.70
9919;DHT22;4998;51.024;13.828;2023-08-08T01:29:26;17.60;91.60
9919;DHT22;4998;51.024;13.828;2023-08-08T01:31:53;17.60;91.60
9919;DHT22;4998;51.024;13.828;2023-08-08T01:34:20;17.60;91.60
9919;DHT22;4998;51.024;13.828;2023-08-08T01:36:54;17.60;91.50
9919;DHT22;4998;51.024;13.828;2023-08-08T01:39:25;17.60;91.50
9919;DHT22;4998;51.024;13.828;2023-08-08T01:41:54;17.60;91.40
9919;DHT22;4998;51.024;13.828;2023-08-08T01:44:22;17.50;91.50
9919;DHT22;4998;51.024;13.828;2023-08-08T01:46:51;17.50;91.40
9919;DHT22;4998;51.024;13.828;2023-08-08T01:49:42;17.50;91.40
9919;DHT22;4998;51.024;13.828;2023-08-08T01:52:09;17.50;91.40
9919;DHT22;4998;51.024;13.828;2023-08-08T01:54:36;17.50;91.30
9919;DHT22;4998;51.024;13.828;2023-08-08T01:57:05;17.40;91.20
9919;DHT22;4998;51.024;13.828;2023-08-08T01:59:32;17.40;91.20
9919;DHT22;4998;51.024;13.828;2023-08-08T02:01:59;17.40;91.30
9919;DHT22;4998;51.024;13.828;2023-08-08T02:04:26;17.40;91.10
9919;DHT22;4998;51.024;13.828;2023-08-08T02:06:53;17.40;91.20
9919;DHT22;4998;51.024;13.828;2023-08-08T02:09:20;17.40;91.10
9919;DHT22;4998;51.024;13.828;2023-08-08T02:11:47;17.40;91.10
9919;DHT22;4998;51.024;13.828;2023-08-08T02:14:15;17.30;91.00
9919;DHT22;4998;51.024;13.828;2023-08-08T02:16:42;17.30;91.00
9919;DHT22;4998;51.024;13.828;2023-08-08T02:19:09;17.30;91.00
9919;DHT22;4998;51.024;13.828;2023-08-08T02:21:36;17.30;90.80
9919;DHT22;4998;51.024;13.828;2023-08-08T02:24:04;17.40;90.90
9919;DHT22;4998;51.024;13.828;2023-08-08T02:26:31;17.20;90.80
9919;DHT22;4998;51.024;13.828;2023-08-08T02:28:58;17.20;90.70
9919;DHT22;4998;51.024;13.828;2023-08-08T02:31:26;17.20;90.70
9919;DHT22;4998;51.024;13.828;2023-08-08T02:33:53;17.20;90.80
9919;DHT22;4998;51.024;13.828;2023-08-08T02:36:21;17.20;90.70
9919;DHT22;4998;51.024;13.828;2023-08-08T02:38:48;17.20;90.70
9919;DHT22;4998;51.024;13.828;2023-08-08T02:41:18;17.10;90.70
9919;DHT22;4998;51.024;13.828;2023-08-08T02:43:45;17.10;90.60
9919;DHT22;4998;51.024;13.828;2023-08-08T02:46:12;17.10;90.60
9919;DHT22;4998;51.024;13.828;2023-08-08T02:48:41;17.10;90.50
9919;DHT22;4998;51.024;13.828;2023-08-08T02:51:08;17.10;90.50
9919;DHT22;4998;51.024;13.828;2023-08-08T02:53:35;17.00;90.40
9919;DHT22;4998;51.024;13.828;2023-08-08T02:56:02;17.00;90.50
9919;DHT22;4998;51.024;13.828;2023-08-08T02:58:29;17.00;90.50
9919;DHT22;4998;51.024;13.828;2023-08-08T03:00:56;17.00;90.40
9919;DHT22;4998;51.024;13.828;2023-08-08T03:03:23;17.00;90.40
9919;DHT22;4998;51.024;13.828;2023-08-08T03:05:52;17.00;90.40
9919;DHT22;4998;51.024;13.828;2023-08-08T03:08:19;16.90;90.30
9919;DHT22;4998;51.024;13.828;2023-08-08T03:10:46;16.90;90.30
9919;DHT22;4998;51.024;13.828;2023-08-08T03:13:13;16.90;90.30
9919;DHT22;4998;51.024;13.828;2023-08-08T03:15:40;16.90;90.30
9919;DHT22;4998;51.024;13.828;2023-08-08T03:18:07;16.90;90.40
9919;DHT22;4998;51.024;13.828;2023-08-08T03:20:34;16.80;90.20
9919;DHT22;4998;51.024;13.828;2023-08-08T03:23:02;16.80;90.10
9919;DHT22;4998;51.024;13.828;2023-08-08T03:25:29;16.80;90.10
9919;DHT22;4998;51.024;13.828;2023-08-08T03:27:56;16.80;90.10
9919;DHT22;4998;51.024;13.828;2023-08-08T03:30:23;16.80;90.20
9919;DHT22;4998;51.024;13.828;2023-08-08T03:32:50;16.80;90.30
9919;DHT22;4998;51.024;13.828;2023-08-08T03:35:17;16.70;90.20
9919;DHT22;4998;51.024;13.828;2023-08-08T03:37:44;16.70;90.10
9919;DHT22;4998;51.024;13.828;2023-08-08T03:40:13;16.70;90.50
9919;DHT22;4998;51.024;13.828;2023-08-08T03:42:40;16.70;90.10
9919;DHT22;4998;51.024;13.828;2023-08-08T03:45:08;16.60;90.10
9919;DHT22;4998;51.024;13.828;2023-08-08T03:47:35;16.60;90.10
9919;DHT22;4998;51.024;13.828;2023-08-08T03:50:02;16.70;90.20
9919;DHT22;4998;51.024;13.828;2023-08-08T03:52:30;16.60;90.30
9919;DHT22;4998;51.024;13.828;2023-08-08T03:55:00;16.70;90.20
9919;DHT22;4998;51.024;13.828;2023-08-08T03:57:28;16.80;90.40
9919;DHT22;4998;51.024;13.828;2023-08-08T03:59:55;16.60;90.30
9919;DHT22;4998;51.024;13.828;2023-08-08T04:02:22;16.70;90.40
9919;DHT22;4998;51.024;13.828;2023-08-08T04:04:49;16.60;90.30
9919;DHT22;4998;51.024;13.828;2023-08-08T04:07:16;16.70;90.30
9919;DHT22;4998;51.024;13.828;2023-08-08T04:09:43;16.60;90.30
9919;DHT22;4998;51.024;13.828;2023-08-08T04:12:10;16.60;90.30
9919;DHT22;4998;51.024;13.828;2023-08-08T04:14:39;16.60;90.70
9919;DHT22;4998;51.024;13.828;2023-08-08T04:17:06;16.70;90.40
9919;DHT22;4998;51.024;13.828;2023-08-08T04:19:33;16.70;90.40
9919;DHT22;4998;51.024;13.828;2023-08-08T04:22:00;16.70;90.40
9919;DHT22;4998;51.024;13.828;2023-08-08T04:24:27;16.70;90.30
9919;DHT22;4998;51.024;13.828;2023-08-08T04:26:54;16.70;90.40
9919;DHT22;4998;51.024;13.828;2023-08-08T04:29:21;16.70;90.40
9919;DHT22;4998;51.024;13.828;2023-08-08T04:31:49;16.70;90.30
9919;DHT22;4998;51.024;13.828;2023-08-08T04:34:16;16.80;90.50
9919;DHT22;4998;51.024;13.828;2023-08-08T04:36:44;16.80;90.60
9919;DHT22;4998;51.024;13.828;2023-08-08T04:39:10;16.90;90.70
9919;DHT22;4998;51.024;13.828;2023-08-08T04:41:37;16.90;90.70
9919;DHT22;4998;51.024;13.828;2023-08-08T04:44:05;16.90;90.70
9919;DHT22;4998;51.024;13.828;2023-08-08T04:46:32;17.00;90.70
9919;DHT22;4998;51.024;13.828;2023-08-08T04:49:00;17.10;90.70
9919;DHT22;4998;51.024;13.828;2023-08-08T04:51:27;17.10;90.60
9919;DHT22;4998;51.024;13.828;2023-08-08T04:53:54;17.20;90.50
9919;DHT22;4998;51.024;13.828;2023-08-08T04:56:21;17.20;90.40
9919;DHT22;4998;51.024;13.828;2023-08-08T04:58:48;17.30;90.40
9919;DHT22;4998;51.024;13.828;2023-08-08T05:01:15;17.30;90.40
9919;DHT22;4998;51.024;13.828;2023-08-08T05:03:43;17.30;90.40
9919;DHT22;4998;51.024;13.828;2023-08-08T05:06:11;17.40;90.30
9919;DHT22;4998;51.024;13.828;2023-08-08T05:08:38;17.40;90.30
9919;DHT22;4998;51.024;13.828;2023-08-08T05:11:05;17.40;90.30
9919;DHT22;4998;51.024;13.828;2023-08-08T05:13:32;17.50;90.40
9919;DHT22;4998;51.024;13.828;2023-08-08T05:15:59;17.50;90.40
9919;DHT22;4998;51.024;13.828;2023-08-08T05:18:26;17.50;90.30
9919;DHT22;4998;51.024;13.828;2023-08-08T05:20:53;17.60;90.40
9919;DHT22;4998;51.024;13.828;2023-08-08T05:23:22;17.60;90.40
9919;DHT22;4998;51.024;13.828;2023-08-08T05:25:49;17.70;90.30
9919;DHT22;4998;51.024;13.828;2023-08-08T05:28:16;17.80;90.50
9919;DHT22;4998;51.024;13.828;2023-08-08T05:30:42;17.90;90.60
9919;DHT22;4998;51.024;13.828;2023-08-08T05:33:09;18.00;90.70
9919;DHT22;4998;51.024;13.828;2023-08-08T05:35:36;18.10;90.60
9919;DHT22;4998;51.024;13.828;2023-08-08T05:38:04;18.30;90.80
9919;DHT22;4998;51.024;13.828;2023-08-08T05:40:34;18.40;90.70
9919;DHT22;4998;51.024;13.828;2023-08-08T05:43:01;18.60;91.10
9919;DHT22;4998;51.024;13.828;2023-08-08T05:45:28;18.80;90.90
9919;DHT22;4998;51.024;13.828;2023-08-08T05:47:55;19.00;90.50
9919;DHT22;4998;51.024;13.828;2023-08-08T05:50:22;19.20;90.30
9919;DHT22;4998;51.024;13.828;2023-08-08T05:52:49;19.40;90.00
9919;DHT22;4998;51.024;13.828;2023-08-08T05:55:16;19.50;88.60
9919;DHT22;4998;51.024;13.828;2023-08-08T05:57:44;19.60;87.20
9919;DHT22;4998;51.024;13.828;2023-08-08T06:00:12;19.70;86.10
9919;DHT22;4998;51.024;13.828;2023-08-08T06:02:39;19.70;85.30
9919;DHT22;4998;51.024;13.828;2023-08-08T06:05:07;19.60;84.80
9919;DHT22;4998;51.024;13.828;2023-08-08T06:07:35;19.60;84.20
9919;DHT22;4998;51.024;13.828;2023-08-08T06:10:02;19.60;84.20
9919;DHT22;4998;51.024;13.828;2023-08-08T06:12:29;19.50;83.40
9919;DHT22;4998;51.024;13.828;2023-08-08T06:14:57;19.50;83.30
9919;DHT22;4998;51.024;13.828;2023-08-08T06:17:25;19.40;82.90
9919;DHT22;4998;51.024;13.828;2023-08-08T06:19:52;19.40;83.20
9919;DHT22;4998;51.024;13.828;2023-08-08T06:22:19;19.30;83.30
9919;DHT22;4998;51.024;13.828;2023-08-08T06:24:46;19.30;83.40
9919;DHT22;4998;51.024;13.828;2023-08-08T06:27:13;19.30;83.30
9919;DHT22;4998;51.024;13.828;2023-08-08T06:29:41;19.30;82.90
9919;DHT22;4998;51.024;13.828;2023-08-08T06:32:09;19.20;82.40
9919;DHT22;4998;51.024;13.828;2023-08-08T06:34:36;19.20;82.40
9919;DHT22;4998;51.024;13.828;2023-08-08T06:37:03;19.20;82.40
9919;DHT22;4998;51.024;13.828;2023-08-08T06:39:30;19.20;82.50
9919;DHT22;4998;51.024;13.828;2023-08-08T06:41:57;19.10;82.70
9919;DHT22;4998;51.024;13.828;2023-08-08T06:44:24;19.10;82.80
9919;DHT22;4998;51.024;13.828;2023-08-08T06:46:51;19.10;82.70
9919;DHT22;4998;51.024;13.828;2023-08-08T06:49:20;19.10;82.70
9919;DHT22;4998;51.024;13.828;2023-08-08T06:51:47;19.10;82.40
9919;DHT22;4998;51.024;13.828;2023-08-08T06:54:14;19.10;82.20
9919;DHT22;4998;51.024;13.828;2023-08-08T06:56:40;19.10;82.40
9919;DHT22;4998;51.024;13.828;2023-08-08T06:59:07;19.10;82.50
9919;DHT22;4998;51.024;13.828;2023-08-08T07:01:35;19.10;82.70
9919;DHT22;4998;51.024;13.828;2023-08-08T07:04:02;19.20;82.80
9919;DHT22;4998;51.024;13.828;2023-08-08T07:06:30;19.10;82.70
9919;DHT22;4998;51.024;13.828;2023-08-08T07:08:57;19.10;82.30
9919;DHT22;4998;51.024;13.828;2023-08-08T07:11:24;19.20;82.60
9919;DHT22;4998;51.024;13.828;2023-08-08T07:13:51;19.20;82.20
9919;DHT22;4998;51.024;13.828;2023-08-08T07:16:18;19.20;82.40
9919;DHT22;4998;51.024;13.828;2023-08-08T07:18:45;19.20;82.60
9919;DHT22;4998;51.024;13.828;2023-08-08T07:21:12;19.20;82.40
9919;DHT22;4998;51.024;13.828;2023-08-08T07:23:42;19.20;81.50
9919;DHT22;4998;51.024;13.828;2023-08-08T07:26:09;19.20;81.10
9919;DHT22;4998;51.024;13.828;2023-08-08T07:28:36;19.20;81.20
9919;DHT22;4998;51.024;13.828;2023-08-08T07:31:03;19.20;80.90
9919;DHT22;4998;51.024;13.828;2023-08-08T07:33:30;19.20;80.80
9919;DHT22;4998;51.024;13.828;2023-08-08T07:35:57;19.20;81.00
9919;DHT22;4998;51.024;13.828;2023-08-08T07:38:24;19.20;82.10
9919;DHT22;4998;51.024;13.828;2023-08-08T07:40:52;19.20;81.40
9919;DHT22;4998;51.024;13.828;2023-08-08T07:43:19;19.30;81.40
9919;DHT22;4998;51.024;13.828;2023-08-08T07:45:47;19.30;81.60
9919;DHT22;4998;51.024;13.828;2023-08-08T07:48:14;19.30;81.70
9919;DHT22;4998;51.024;13.828;2023-08-08T07:50:41;19.40;81.80
9919;DHT22;4998;51.024;13.828;2023-08-08T07:53:08;19.50;81.90
9919;DHT22;4998;51.024;13.828;2023-08-08T07:55:35;19.50;81.90
9919;DHT22;4998;51.024;13.828;2023-08-08T07:58:03;19.60;81.90
9919;DHT22;4998;51.024;13.828;2023-08-08T08:00:30;19.70;81.60
9919;DHT22;4998;51.024;13.828;2023-08-08T08:02:57;19.70;81.90
9919;DHT22;4998;51.024;13.828;2023-08-08T08:05:24;19.80;82.40
9919;DHT22;4998;51.024;13.828;2023-08-08T08:07:51;19.90;81.70
9919;DHT22;4998;51.024;13.828;2023-08-08T08:10:18;19.90;81.40
9919;DHT22;4998;51.024;13.828;2023-08-08T08:12:45;20.00;80.90
9919;DHT22;4998;51.024;13.828;2023-08-08T08:15:14;20.10;80.60
9919;DHT22;4998;51.024;13.828;2023-08-08T08:17:41;20.10;80.30
9919;DHT22;4998;51.024;13.828;2023-08-08T08:20:09;20.20;80.50
9919;DHT22;4998;51.024;13.828;2023-08-08T08:22:38;20.20;80.70
9919;DHT22;4998;51.024;13.828;2023-08-08T08:25:05;20.20;80.50
9919;DHT22;4998;51.024;13.828;2023-08-08T08:27:35;20.30;80.30
9919;DHT22;4998;51.024;13.828;2023-08-08T08:30:02;20.40;79.90
9919;DHT22;4998;51.024;13.828;2023-08-08T08:32:34;20.50;79.50
9919;DHT22;4998;51.024;13.828;2023-08-08T08:35:02;20.50;78.80
9919;DHT22;4998;51.024;13.828;2023-08-08T08:37:29;20.50;78.80
9919;DHT22;4998;51.024;13.828;2023-08-08T08:39:56;20.50;78.50
9919;DHT22;4998;51.024;13.828;2023-08-08T08:42:23;20.60;78.00
9919;DHT22;4998;51.024;13.828;2023-08-08T08:44:51;20.60;77.80
9919;DHT22;4998;51.024;13.828;2023-08-08T08:47:21;20.60;77.70
9919;DHT22;4998;51.024;13.828;2023-08-08T08:49:52;20.70;77.60
9919;DHT22;4998;51.024;13.828;2023-08-08T08:52:19;20.70;76.90
9919;DHT22;4998;51.024;13.828;2023-08-08T08:54:46;20.70;77.30
9919;DHT22;4998;51.024;13.828;2023-08-08T08:57:13;20.80;77.40
9919;DHT22;4998;51.024;13.828;2023-08-08T08:59:41;20.80;76.00
9919;DHT22;4998;51.024;13.828;2023-08-08T09:02:08;20.90;76.50
9919;DHT22;4998;51.024;13.828;2023-08-08T09:04:35;20.90;76.60
9919;DHT22;4998;51.024;13.828;2023-08-08T09:07:05;21.00;76.00
9919;DHT22;4998;51.024;13.828;2023-08-08T09:09:33;21.00;74.50
9919;DHT22;4998;51.024;13.828;2023-08-08T09:12:02;21.10;74.50
9919;DHT22;4998;51.024;13.828;2023-08-08T09:14:30;21.10;73.70
9919;DHT22;4998;51.024;13.828;2023-08-08T09:16:57;21.10;74.00
9919;DHT22;4998;51.024;13.828;2023-08-08T09:19:25;21.10;73.50
9919;DHT22;4998;51.024;13.828;2023-08-08T09:21:52;21.10;73.40
9919;DHT22;4998;51.024;13.828;2023-08-08T09:24:21;21.10;72.80
9919;DHT22;4998;51.024;13.828;2023-08-08T09:26:48;21.00;71.90
9919;DHT22;4998;51.024;13.828;2023-08-08T09:29:16;21.00;72.30
9919;DHT22;4998;51.024;13.828;2023-08-08T09:31:43;21.00;71.70
9919;DHT22;4998;51.024;13.828;2023-08-08T09:34:12;20.90;72.30
9919;DHT22;4998;51.024;13.828;2023-08-08T09:36:40;20.80;72.00
9919;DHT22;4998;51.024;13.828;2023-08-08T09:39:07;20.80;71.90
9919;DHT22;4998;51.024;13.828;2023-08-08T09:41:35;20.80;72.10
9919;DHT22;4998;51.024;13.828;2023-08-08T09:44:03;20.70;72.00
9919;DHT22;4998;51.024;13.828;2023-08-08T09:46:30;20.70;71.60
9919;DHT22;4998;51.024;13.828;2023-08-08T09:48:58;20.60;71.90
9919;DHT22;4998;51.024;13.828;2023-08-08T09:51:25;20.60;72.60
9919;DHT22;4998;51.024;13.828;2023-08-08T09:53:53;20.60;73.00
9919;DHT22;4998;51.024;13.828;2023-08-08T09:56:20;20.60;73.00
9919;DHT22;4998;51.024;13.828;2023-08-08T09:58:50;20.60;73.30
9919;DHT22;4998;51.024;13.828;2023-08-08T10:01:19;20.60;72.20
9919;DHT22;4998;51.024;13.828;2023-08-08T10:03:46;20.60;72.80
9919;DHT22;4998;51.024;13.828;2023-08-08T10:06:13;20.60;73.00
9919;DHT22;4998;51.024;13.828;2023-08-08T10:08:41;20.60;73.00
9919;DHT22;4998;51.024;13.828;2023-08-08T10:11:09;20.60;73.40
9919;DHT22;4998;51.024;13.828;2023-08-08T10:13:36;20.70;73.20
9919;DHT22;4998;51.024;13.828;2023-08-08T10:16:08;20.70;72.90
9919;DHT22;4998;51.024;13.828;2023-08-08T10:18:35;20.70;72.30
9919;DHT22;4998;51.024;13.828;2023-08-08T10:21:04;20.80;72.40
9919;DHT22;4998;51.024;13.828;2023-08-08T10:23:36;20.80;72.40
9919;DHT22;4998;51.024;13.828;2023-08-08T10:26:04;20.80;72.60
9919;DHT22;4998;51.024;13.828;2023-08-08T10:28:32;20.90;72.40
9919;DHT22;4998;51.024;13.828;2023-08-08T10:31:01;20.90;72.50
9919;DHT22;4998;51.024;13.828;2023-08-08T10:33:41;21.00;72.00
9919;DHT22;4998;51.024;13.828;2023-08-08T10:36:09;21.00;71.00
9919;DHT22;4998;51.024;13.828;2023-08-08T10:38:40;21.00;71.10
9919;DHT22;4998;51.024;13.828;2023-08-08T10:41:10;21.10;71.10
9919;DHT22;4998;51.024;13.828;2023-08-08T10:43:38;21.10;70.90
9919;DHT22;4998;51.024;13.828;2023-08-08T10:46:06;21.20;70.50
9919;DHT22;4998;51.024;13.828;2023-08-08T10:48:34;21.20;70.50
9919;DHT22;4998;51.024;13.828;2023-08-08T10:51:05;21.30;70.40
9919;DHT22;4998;51.024;13.828;2023-08-08T10:53:33;21.40;70.20
9919;DHT22;4998;51.024;13.828;2023-08-08T10:56:01;21.40;70.10
9919;DHT22;4998;51.024;13.828;2023-08-08T10:58:36;21.50;69.90
9919;DHT22;4998;51.024;13.828;2023-08-08T11:01:04;21.50;68.40
9919;DHT22;4998;51.024;13.828;2023-08-08T11:03:35;21.60;69.00
9919;DHT22;4998;51.024;13.828;2023-08-08T11:06:03;21.60;68.40
9919;DHT22;4998;51.024;13.828;2023-08-08T11:08:31;21.70;68.00
9919;DHT22;4998;51.024;13.828;2023-08-08T11:10:58;21.70;67.00
9919;DHT22;4998;51.024;13.828;2023-08-08T11:13:26;21.70;66.90
9919;DHT22;4998;51.024;13.828;2023-08-08T11:15:53;21.70;66.30
9919;DHT22;4998;51.024;13.828;2023-08-08T11:18:20;21.70;66.10
9919;DHT22;4998;51.024;13.828;2023-08-08T11:20:48;21.70;65.40
9919;DHT22;4998;51.024;13.828;2023-08-08T11:23:17;21.70;65.40
9919;DHT22;4998;51.024;13.828;2023-08-08T11:25:46;21.80;65.80
9919;DHT22;4998;51.024;13.828;2023-08-08T11:28:14;21.80;65.80
9919;DHT22;4998;51.024;13.828;2023-08-08T11:30:43;21.80;65.90
9919;DHT22;4998;51.024;13.828;2023-08-08T11:33:13;21.90;64.80
9919;DHT22;4998;51.024;13.828;2023-08-08T11:35:43;21.90;64.50
9919;DHT22;4998;51.024;13.828;2023-08-08T11:38:12;22.00;64.40
9919;DHT22;4998;51.024;13.828;2023-08-08T11:40:41;22.00;64.60
9919;DHT22;4998;51.024;13.828;2023-08-08T11:43:09;22.10;64.40
9919;DHT22;4998;51.024;13.828;2023-08-08T11:45:37;22.20;64.30
9919;DHT22;4998;51.024;13.828;2023-08-08T11:48:05;22.20;64.40
9919;DHT22;4998;51.024;13.828;2023-08-08T11:50:32;22.20;64.40
9919;DHT22;4998;51.024;13.828;2023-08-08T11:52:59;22.30;64.90
9919;DHT22;4998;51.024;13.828;2023-08-08T11:55:30;22.40;65.40
9919;DHT22;4998;51.024;13.828;2023-08-08T11:57:58;22.50;64.40
9919;DHT22;4998;51.024;13.828;2023-08-08T12:00:30;22.60;64.40
9919;DHT22;4998;51.024;13.828;2023-08-08T12:02:57;22.70;63.50
9919;DHT22;4998;51.024;13.828;2023-08-08T12:05:24;22.80;62.50
9919;DHT22;4998;51.024;13.828;2023-08-08T12:07:52;22.80;61.80
9919;DHT22;4998;51.024;13.828;2023-08-08T12:10:21;22.90;61.50
9919;DHT22;4998;51.024;13.828;2023-08-08T12:12:53;23.00;61.10
9919;DHT22;4998;51.024;13.828;2023-08-08T12:15:22;23.10;60.80
9919;DHT22;4998;51.024;13.828;2023-08-08T12:17:49;23.10;60.60
9919;DHT22;4998;51.024;13.828;2023-08-08T12:20:16;23.20;60.60
9919;DHT22;4998;51.024;13.828;2023-08-08T12:22:43;23.30;60.20
9919;DHT22;4998;51.024;13.828;2023-08-08T12:25:11;23.40;60.00
9919;DHT22;4998;51.024;13.828;2023-08-08T12:27:38;23.50;59.70
9919;DHT22;4998;51.024;13.828;2023-08-08T12:30:07;23.50;59.30
9919;DHT22;4998;51.024;13.828;2023-08-08T12:32:35;23.60;57.90
9919;DHT22;4998;51.024;13.828;2023-08-08T12:35:02;23.60;57.50
9919;DHT22;4998;51.024;13.828;2023-08-08T12:37:30;23.60;57.50
9919;DHT22;4998;51.024;13.828;2023-08-08T12:39:57;23.60;57.60
9919;DHT22;4998;51.024;13.828;2023-08-08T12:42:24;23.60;57.80
9919;DHT22;4998;51.024;13.828;2023-08-08T12:44:51;23.60;57.60
9919;DHT22;4998;51.024;13.828;2023-08-08T12:47:18;23.60;57.60
9919;DHT22;4998;51.024;13.828;2023-08-08T12:49:47;23.60;57.30
9919;DHT22;4998;51.024;13.828;2023-08-08T12:52:14;23.60;57.00
9919;DHT22;4998;51.024;13.828;2023-08-08T12:54:42;23.60;57.30
9919;DHT22;4998;51.024;13.828;2023-08-08T12:57:09;23.60;57.20
9919;DHT22;4998;51.024;13.828;2023-08-08T12:59:36;23.60;56.60
9919;DHT22;4998;51.024;13.828;2023-08-08T13:02:03;23.60;56.50
9919;DHT22;4998;51.024;13.828;2023-08-08T13:04:30;23.60;56.40
9919;DHT22;4998;51.024;13.828;2023-08-08T13:06:59;23.70;56.80
9919;DHT22;4998;51.024;13.828;2023-08-08T13:09:26;23.70;56.70
9919;DHT22;4998;51.024;13.828;2023-08-08T13:11:53;23.80;56.60
9919;DHT22;4998;51.024;13.828;2023-08-08T13:14:20;23.80;56.00
9919;DHT22;4998;51.024;13.828;2023-08-08T13:16:46;23.90;56.10
9919;DHT22;4998;51.024;13.828;2023-08-08T13:19:14;23.90;55.90
9919;DHT22;4998;51.024;13.828;2023-08-08T13:21:45;23.90;56.00
9919;DHT22;4998;51.024;13.828;2023-08-08T13:24:13;24.00;55.10
9919;DHT22;4998;51.024;13.828;2023-08-08T13:26:40;24.00;55.00
9919;DHT22;4998;51.024;13.828;2023-08-08T13:29:07;24.00;54.70
9919;DHT22;4998;51.024;13.828;2023-08-08T13:31:35;24.00;54.70
9919;DHT22;4998;51.024;13.828;2023-08-08T13:34:02;24.00;54.70
9919;DHT22;4998;51.024;13.828;2023-08-08T13:36:29;24.00;54.70
9919;DHT22;4998;51.024;13.828;2023-08-08T13:38:56;24.00;54.80
9919;DHT22;4998;51.024;13.828;2023-08-08T13:41:25;24.10;54.90
9919;DHT22;4998;51.024;13.828;2023-08-08T13:43:52;24.10;54.60
9919;DHT22;4998;51.024;13.828;2023-08-08T13:46:19;24.10;54.00
9919;DHT22;4998;51.024;13.828;2023-08-08T13:48:46;24.10;53.70
9919;DHT22;4998;51.024;13.828;2023-08-08T13:51:13;24.10;53.90
9919;DHT22;4998;51.024;13.828;2023-08-08T13:53:40;24.00;54.70
9919;DHT22;4998;51.024;13.828;2023-08-08T13:56:07;24.00;55.00
9919;DHT22;4998;51.024;13.828;2023-08-08T13:58:35;23.90;55.30
9919;DHT22;4998;51.024;13.828;2023-08-08T14:01:02;23.80;55.30
9919;DHT22;4998;51.024;13.828;2023-08-08T14:03:29;23.80;55.10
9919;DHT22;4998;51.024;13.828;2023-08-08T14:05:56;23.70;55.20
9919;DHT22;4998;51.024;13.828;2023-08-08T14:08:23;23.70;55.40
9919;DHT22;4998;51.024;13.828;2023-08-08T14:10:50;23.60;55.60
9919;DHT22;4998;51.024;13.828;2023-08-08T14:13:17;23.50;56.00
9919;DHT22;4998;51.024;13.828;2023-08-08T14:15:46;23.50;56.10
9919;DHT22;4998;51.024;13.828;2023-08-08T14:18:13;23.40;56.50
9919;DHT22;4998;51.024;13.828;2023-08-08T14:20:40;23.30;57.00
9919;DHT22;4998;51.024;13.828;2023-08-08T14:23:07;23.20;56.90
9919;DHT22;4998;51.024;13.828;2023-08-08T14:25:34;23.20;57.10
9919;DHT22;4998;51.024;13.828;2023-08-08T14:28:02;23.20;57.60
9919;DHT22;4998;51.024;13.828;2023-08-08T14:30:29;23.20;57.40
9919;DHT22;4998;51.024;13.828;2023-08-08T14:32:58;23.20;57.50
9919;DHT22;4998;51.024;13.828;2023-08-08T14:35:25;23.20;57.30
9919;DHT22;4998;51.024;13.828;2023-08-08T14:37:53;23.20;57.50
9919;DHT22;4998;51.024;13.828;2023-08-08T14:40:20;23.10;58.60
9919;DHT22;4998;51.024;13.828;2023-08-08T14:42:47;23.30;58.20
9919;DHT22;4998;51.024;13.828;2023-08-08T14:45:14;23.10;58.10
9919;DHT22;4998;51.024;13.828;2023-08-08T14:47:41;23.20;57.90
9919;DHT22;4998;51.024;13.828;2023-08-08T14:50:10;23.20;57.80
9919;DHT22;4998;51.024;13.828;2023-08-08T14:52:37;23.20;57.80
9919;DHT22;4998;51.024;13.828;2023-08-08T14:55:05;23.20;57.80
9919;DHT22;4998;51.024;13.828;2023-08-08T14:57:32;23.30;57.90
9919;DHT22;4998;51.024;13.828;2023-08-08T14:59:59;23.30;58.00
9919;DHT22;4998;51.024;13.828;2023-08-08T15:02:27;23.40;57.90
9919;DHT22;4998;51.024;13.828;2023-08-08T15:04:54;23.40;57.60
9919;DHT22;4998;51.024;13.828;2023-08-08T15:07:22;23.50;57.60
9919;DHT22;4998;51.024;13.828;2023-08-08T15:09:49;23.50;58.00
9919;DHT22;4998;51.024;13.828;2023-08-08T15:12:17;23.50;58.60
9919;DHT22;4998;51.024;13.828;2023-08-08T15:14:44;23.50;57.60
9919;DHT22;4998;51.024;13.828;2023-08-08T15:17:11;23.60;57.70
9919;DHT22;4998;51.024;13.828;2023-08-08T15:19:38;23.60;57.80
9919;DHT22;4998;51.024;13.828;2023-08-08T15:22:05;23.60;57.60
9919;DHT22;4998;51.024;13.828;2023-08-08T15:24:34;23.60;57.30
9919;DHT22;4998;51.024;13.828;2023-08-08T15:27:02;23.50;57.30
9919;DHT22;4998;51.024;13.828;2023-08-08T15:29:29;23.40;57.50
9919;DHT22;4998;51.024;13.828;2023-08-08T15:31:56;23.40;57.40
9919;DHT22;4998;51.024;13.828;2023-08-08T15:34:23;23.40;57.50
9919;DHT22;4998;51.024;13.828;2023-08-08T15:36:50;23.40;57.40
9919;DHT22;4998;51.024;13.828;2023-08-08T15:39:19;23.40;57.40
9919;DHT22;4998;51.024;13.828;2023-08-08T15:41:48;23.40;57.30
9919;DHT22;4998;51.024;13.828;2023-08-08T15:44:15;23.40;57.50
9919;DHT22;4998;51.024;13.828;2023-08-08T15:46:42;23.40;57.40